createdAt,value
2022-11-22T00:01:39.944Z,1.92
2022-11-22T00:06:41.368Z,1.92
2022-11-22T00:11:42.797Z,1.95
2022-11-22T00:16:44.335Z,1.99
2022-11-22T00:21:45.793Z,2.01
2022-11-22T00:26:47.208Z,2.02
2022-11-22T00:31:48.691Z,1.99
2022-11-22T00:36:50.126Z,1.99
2022-11-22T00:41:51.532Z,1.95
2022-11-22T00:46:53.015Z,1.91
2022-11-22T00:51:54.436Z,1.85
2022-11-22T00:56:55.842Z,1.80
2022-11-22T01:01:57.329Z,1.77
2022-11-22T01:06:58.756Z,1.75
2022-11-22T01:12:00.155Z,1.71
2022-11-22T01:17:01.589Z,1.69
2022-11-22T01:22:02.988Z,1.68
2022-11-22T01:27:04.459Z,1.70
2022-11-22T01:32:06.587Z,1.69
2022-11-22T01:37:07.974Z,1.66
2022-11-22T01:42:11.099Z,1.65
2022-11-22T01:47:14.155Z,1.63
2022-11-22T01:52:21.779Z,1.64
2022-11-22T01:57:28.149Z,1.64
2022-11-22T02:02:29.602Z,1.66
2022-11-22T02:07:42.542Z,1.67
2022-11-22T02:12:44.393Z,1.66
2022-11-22T02:17:45.862Z,1.67
2022-11-22T02:23:06.742Z,1.66
2022-11-22T02:28:13.772Z,1.66
2022-11-22T02:33:15.199Z,1.68
2022-11-22T02:38:22.435Z,1.71
2022-11-22T02:43:29.853Z,1.70
2022-11-22T02:48:31.375Z,1.69
2022-11-22T02:53:32.815Z,1.67
2022-11-22T02:58:34.287Z,1.70
2022-11-22T03:03:35.803Z,1.71
2022-11-22T03:08:37.373Z,1.72
2022-11-22T03:13:38.761Z,1.72
2022-11-22T03:18:40.166Z,1.74
2022-11-22T03:23:41.615Z,1.77
2022-11-22T03:28:43.027Z,1.79
2022-11-22T03:33:44.551Z,1.82
2022-11-22T03:38:45.961Z,1.84
2022-11-22T03:43:47.349Z,1.85
2022-11-22T03:48:48.749Z,1.87
2022-11-22T03:53:50.161Z,1.92
2022-11-22T03:58:51.641Z,1.97
2022-11-22T04:03:53.113Z,2.01
2022-11-22T04:08:54.583Z,2.03
2022-11-22T04:14:14.919Z,2.06
2022-11-22T04:19:16.364Z,2.09
2022-11-22T04:24:36.192Z,2.11
2022-11-22T04:29:37.587Z,2.07
2022-11-22T04:34:38.985Z,2.03
2022-11-22T04:39:40.444Z,2.00
2022-11-22T04:44:42.964Z,1.97
2022-11-22T04:49:44.373Z,1.94
2022-11-22T04:54:45.834Z,1.91
2022-11-22T04:59:51.328Z,1.88
2022-11-22T05:04:52.736Z,1.85
2022-11-22T05:09:54.135Z,1.87
2022-11-22T05:14:55.571Z,1.93
2022-11-22T05:19:56.933Z,1.99
2022-11-22T05:24:58.406Z,2.05
2022-11-22T05:29:59.800Z,2.12
2022-11-22T05:35:01.206Z,2.19
2022-11-22T05:40:02.931Z,2.25
2022-11-22T05:45:04.662Z,2.31
2022-11-22T05:50:06.333Z,2.36
2022-11-22T05:55:07.956Z,2.41
2022-11-22T06:00:09.826Z,2.43
2022-11-22T06:05:13.322Z,2.42
2022-11-22T06:10:14.840Z,2.43
2022-11-22T06:15:16.252Z,2.47
2022-11-22T06:20:17.902Z,2.49
2022-11-22T06:25:19.296Z,2.50
2022-11-22T06:30:20.667Z,2.50
2022-11-22T06:35:22.029Z,2.56
2022-11-22T06:40:23.427Z,2.59
2022-11-22T06:45:24.799Z,2.64
2022-11-22T06:50:26.180Z,2.71
2022-11-22T06:55:49.812Z,2.72
2022-11-22T07:00:48.913Z,2.72
2022-11-22T07:05:51.661Z,2.76
2022-11-22T07:10:53.626Z,2.78
2022-11-22T07:16:00.114Z,2.83
2022-11-22T07:21:12.907Z,2.90
2022-11-22T07:26:17.037Z,2.93
2022-11-22T07:31:19.007Z,2.98
2022-11-22T07:36:22.206Z,3.04
2022-11-22T07:41:23.630Z,3.08
2022-11-22T07:46:29.791Z,3.14
2022-11-22T07:51:31.353Z,3.17
2022-11-22T07:56:34.424Z,3.20
2022-11-22T08:01:35.851Z,3.27
2022-11-22T08:06:37.291Z,3.33
2022-11-22T08:11:38.703Z,3.37
2022-11-22T08:16:40.212Z,3.41
2022-11-22T08:21:41.618Z,3.46
2022-11-22T08:26:43.603Z,3.49
2022-11-22T08:31:44.968Z,3.55
2022-11-22T08:36:46.342Z,3.58
2022-11-22T08:41:48.027Z,3.63
2022-11-22T08:46:49.388Z,3.69
2022-11-22T08:51:50.979Z,3.73
2022-11-22T08:56:52.342Z,3.73
2022-11-22T09:01:53.926Z,3.75
2022-11-22T09:12:16.812Z,3.83
2022-11-22T09:17:18.473Z,3.94
2022-11-22T09:22:22.807Z,4.06
2022-11-22T09:27:26.986Z,4.22
2022-11-22T09:32:33.474Z,4.39
2022-11-22T09:37:35.247Z,4.55
2022-11-22T09:42:43.227Z,4.74
2022-11-22T09:48:21.927Z,4.88
2022-11-22T09:53:30.415Z,4.88
2022-11-22T09:58:37.454Z,4.87
2022-11-22T10:03:51.849Z,4.91
2022-11-22T10:09:05.378Z,4.93
2022-11-22T10:14:29.759Z,5.03
2022-11-22T10:19:50.198Z,5.18
2022-11-22T10:24:51.559Z,5.37
2022-11-22T10:29:52.906Z,5.57
2022-11-22T10:35:30.591Z,5.76
2022-11-22T10:41:01.119Z,5.91
2022-11-22T10:46:27.635Z,6.04
2022-11-22T10:51:54.691Z,6.15
2022-11-22T10:57:11.146Z,6.11
2022-11-22T11:02:27.706Z,6.05
2022-11-22T11:07:29.408Z,6.03
2022-11-22T11:12:49.297Z,6.04
2022-11-22T11:17:58.662Z,6.08
2022-11-22T11:23:14.283Z,6.14
2022-11-22T11:28:19.310Z,6.21
2022-11-22T11:33:32.555Z,6.28
2022-11-22T11:38:48.454Z,6.34
2022-11-22T11:43:54.798Z,6.38
2022-11-22T11:49:10.094Z,6.37
2022-11-22T11:54:15.893Z,6.37
2022-11-22T11:59:22.907Z,6.37
2022-11-22T12:04:35.914Z,6.31
2022-11-22T12:09:44.140Z,6.26
2022-11-22T12:15:10.801Z,6.25
2022-11-22T12:20:21.095Z,6.25
2022-11-22T12:25:36.610Z,6.24
2022-11-22T12:30:40.931Z,6.22
2022-11-22T12:35:44.415Z,6.18
2022-11-22T12:40:51.182Z,6.11
2022-11-22T12:46:04.575Z,6.05
2022-11-22T12:51:28.648Z,6.00
2022-11-22T12:56:39.080Z,5.96
2022-11-22T13:01:54.307Z,5.96
2022-11-22T13:07:12.093Z,5.96
2022-11-22T13:12:31.717Z,6.01
2022-11-22T13:17:35.934Z,6.06
2022-11-22T13:22:49.768Z,6.10
2022-11-22T13:27:53.069Z,6.05
2022-11-22T13:32:59.511Z,6.04
2022-11-22T13:38:21.970Z,6.03
2022-11-22T13:43:33.182Z,6.00
2022-11-22T13:48:40.491Z,5.99
2022-11-22T13:53:45.920Z,5.93
2022-11-22T13:58:50.723Z,5.91
2022-11-22T14:03:52.755Z,5.92
2022-11-22T14:09:25.439Z,5.93
2022-11-22T14:14:58.944Z,5.88
2022-11-22T14:20:00.991Z,5.82
2022-11-22T14:25:17.694Z,5.82
2022-11-22T14:30:37.550Z,5.80
2022-11-22T14:35:59.138Z,5.81
2022-11-22T14:41:28.313Z,5.81
2022-11-22T14:46:52.713Z,5.81
2022-11-22T14:51:56.157Z,5.81
2022-11-22T14:57:04.336Z,5.79
2022-11-22T15:02:43.639Z,5.78
2022-11-22T15:09:12.130Z,5.77
2022-11-22T15:13:49.844Z,5.76
2022-11-22T15:57:46.933Z,5.75
2022-11-22T16:02:51.271Z,5.74
2022-11-22T16:07:53.478Z,5.71
2022-11-22T16:12:55.017Z,5.66
2022-11-22T16:18:14.410Z,5.60
2022-11-22T16:23:19.697Z,5.53
2022-11-22T16:28:28.780Z,5.47
2022-11-22T16:33:30.655Z,5.39
2022-11-22T16:38:32.163Z,5.33
2022-11-22T16:43:35.195Z,5.28
2022-11-22T16:48:36.570Z,5.25
2022-11-22T16:53:49.004Z,5.19
2022-11-22T16:58:51.735Z,5.08
2022-11-22T17:03:55.798Z,5.01
2022-11-22T17:08:59.043Z,4.98
2022-11-22T17:14:01.011Z,4.97
2022-11-22T17:19:02.472Z,5.01
2022-11-22T17:24:16.411Z,4.99
2022-11-22T17:29:43.355Z,4.93
2022-11-22T17:34:39.206Z,4.87
2022-11-22T17:39:40.906Z,4.84
2022-11-22T17:44:42.370Z,4.86
2022-11-22T17:49:44.060Z,4.90
2022-11-22T17:54:45.453Z,4.90
2022-11-22T17:59:46.860Z,4.85
2022-11-22T18:04:48.281Z,4.77
2022-11-22T18:09:51.543Z,4.74
2022-11-22T18:14:53.307Z,4.72
2022-11-22T18:19:54.671Z,4.66
2022-11-22T18:24:56.075Z,4.60
2022-11-22T18:29:57.627Z,4.51
2022-11-22T18:34:59.173Z,4.47
2022-11-22T18:40:01.416Z,4.47
2022-11-22T18:45:02.845Z,4.49
2022-11-22T18:50:06.369Z,4.49
2022-11-22T18:55:11.643Z,4.51
2022-11-22T19:00:14.287Z,4.54
2022-11-22T19:05:15.975Z,4.59
2022-11-22T19:10:17.447Z,4.65
2022-11-22T19:15:18.994Z,4.66
2022-11-22T19:20:47.503Z,4.66
2022-11-22T19:25:42.406Z,4.68
2022-11-22T19:30:44.425Z,4.70
2022-11-22T19:36:00.227Z,4.71
2022-11-22T19:41:01.745Z,4.70
2022-11-22T19:46:04.050Z,4.71
2022-11-22T20:17:34.910Z,4.49
2022-11-22T20:43:19.241Z,4.46
2022-11-22T20:52:36.962Z,4.48
2022-11-22T21:04:10.487Z,4.60
2022-11-22T21:50:50.279Z,4.73
2022-11-22T21:55:53.330Z,4.77
2022-11-22T22:00:57.526Z,4.79
2022-11-22T22:05:59.175Z,4.84
2022-11-22T22:11:02.371Z,4.87
2022-11-22T22:16:12.669Z,4.91
2022-11-22T22:21:15.204Z,4.94
2022-11-22T22:26:17.230Z,4.97
2022-11-22T22:31:22.154Z,5.00
2022-11-22T22:36:27.036Z,5.05
2022-11-22T22:41:28.475Z,5.08
2022-11-22T22:46:29.845Z,5.10
2022-11-22T22:51:33.123Z,5.06
2022-11-22T22:56:34.868Z,4.96
2022-11-22T23:01:36.254Z,4.87
2022-11-22T23:06:39.591Z,4.77
2022-11-22T23:12:00.025Z,4.73
2022-11-22T23:17:01.454Z,4.73
2022-11-22T23:22:03.574Z,4.76
2022-11-22T23:27:04.934Z,4.75
2022-11-22T23:32:06.363Z,4.71
2022-11-22T23:37:07.948Z,4.63
2022-11-22T23:42:09.303Z,4.53
2022-11-22T23:47:10.689Z,4.46
2022-11-22T23:52:12.079Z,4.44
2022-11-22T23:57:13.451Z,4.42
